sensor_id;sensor_type;location;lat;lon;timestamp;P1;durP1;ratioP1;P2;durP2;ratioP2
11675;SDS011;5894;42.768;23.404;2022-07-06T00:00:20;9.63;;;8.52;;
11675;SDS011;5894;42.768;23.404;2022-07-06T00:02:47;10.88;;;8.32;;
11675;SDS011;5894;42.768;23.404;2022-07-06T00:05:14;9.52;;;7.97;;
11675;SDS011;5894;42.768;23.404;2022-07-06T00:07:41;9.15;;;7.50;;
11675;SDS011;5894;42.768;23.404;2022-07-06T00:10:08;8.82;;;7.88;;
11675;SDS011;5894;42.768;23.404;2022-07-06T00:12:34;10.85;;;8.43;;
11675;SDS011;5894;42.768;23.404;2022-07-06T00:15:03;9.57;;;8.02;;
11675;SDS011;5894;42.768;23.404;2022-07-06T00:17:30;8.48;;;7.43;;
11675;SDS011;5894;42.768;23.404;2022-07-06T00:19:57;8.70;;;7.90;;
11675;SDS011;5894;42.768;23.404;2022-07-06T00:22:24;8.88;;;7.97;;
11675;SDS011;5894;42.768;23.404;2022-07-06T00:24:51;8.80;;;7.90;;
11675;SDS011;5894;42.768;23.404;2022-07-06T00:27:17;8.02;;;7.22;;
11675;SDS011;5894;42.768;23.404;2022-07-06T00:29:44;8.48;;;7.68;;
11675;SDS011;5894;42.768;23.404;2022-07-06T00:32:13;8.85;;;7.88;;
11675;SDS011;5894;42.768;23.404;2022-07-06T00:34:41;9.45;;;7.22;;
11675;SDS011;5894;42.768;23.404;2022-07-06T00:37:09;10.10;;;8.30;;
11675;SDS011;5894;42.768;23.404;2022-07-06T00:39:36;9.07;;;8.18;;
11675;SDS011;5894;42.768;23.404;2022-07-06T00:42:03;10.77;;;8.10;;
11675;SDS011;5894;42.768;23.404;2022-07-06T00:44:30;9.65;;;8.20;;
11675;SDS011;5894;42.768;23.404;2022-07-06T00:46:58;8.48;;;7.68;;
11675;SDS011;5894;42.768;23.404;2022-07-06T00:49:27;10.45;;;8.48;;
11675;SDS011;5894;42.768;23.404;2022-07-06T00:52:11;8.48;;;7.63;;
11675;SDS011;5894;42.768;23.404;2022-07-06T00:54:38;9.27;;;7.60;;
11675;SDS011;5894;42.768;23.404;2022-07-06T00:57:07;8.30;;;7.28;;
11675;SDS011;5894;42.768;23.404;2022-07-06T00:59:34;9.95;;;7.15;;
11675;SDS011;5894;42.768;23.404;2022-07-06T01:02:01;9.85;;;7.82;;
11675;SDS011;5894;42.768;23.404;2022-07-06T01:04:30;8.07;;;7.28;;
11675;SDS011;5894;42.768;23.404;2022-07-06T01:06:57;8.73;;;7.35;;
11675;SDS011;5894;42.768;23.404;2022-07-06T01:09:24;8.43;;;7.63;;
11675;SDS011;5894;42.768;23.404;2022-07-06T01:11:51;8.80;;;7.90;;
11675;SDS011;5894;42.768;23.404;2022-07-06T01:14:19;8.30;;;7.10;;
11675;SDS011;5894;42.768;23.404;2022-07-06T01:16:47;10.43;;;7.75;;
11675;SDS011;5894;42.768;23.404;2022-07-06T01:19:14;8.38;;;7.47;;
11675;SDS011;5894;42.768;23.404;2022-07-06T01:21:42;8.85;;;7.65;;
11675;SDS011;5894;42.768;23.404;2022-07-06T01:24:09;8.60;;;7.72;;
11675;SDS011;5894;42.768;23.404;2022-07-06T01:26:36;8.82;;;7.95;;
11675;SDS011;5894;42.768;23.404;2022-07-06T01:29:04;9.10;;;7.85;;
11675;SDS011;5894;42.768;23.404;2022-07-06T01:31:31;8.50;;;7.68;;
11675;SDS011;5894;42.768;23.404;2022-07-06T01:33:58;8.63;;;7.75;;
11675;SDS011;5894;42.768;23.404;2022-07-06T01:36:25;9.40;;;7.45;;
11675;SDS011;5894;42.768;23.404;2022-07-06T01:38:53;10.75;;;7.70;;
11675;SDS011;5894;42.768;23.404;2022-07-06T01:41:23;11.55;;;7.82;;
11675;SDS011;5894;42.768;23.404;2022-07-06T01:43:50;11.98;;;8.20;;
11675;SDS011;5894;42.768;23.404;2022-07-06T01:46:17;10.65;;;7.97;;
11675;SDS011;5894;42.768;23.404;2022-07-06T01:48:45;11.02;;;7.82;;
11675;SDS011;5894;42.768;23.404;2022-07-06T01:51:12;8.57;;;7.68;;
11675;SDS011;5894;42.768;23.404;2022-07-06T01:53:41;9.68;;;8.40;;
11675;SDS011;5894;42.768;23.404;2022-07-06T01:56:10;8.88;;;8.00;;
11675;SDS011;5894;42.768;23.404;2022-07-06T01:58:37;12.18;;;8.18;;
11675;SDS011;5894;42.768;23.404;2022-07-06T02:01:07;8.75;;;7.85;;
11675;SDS011;5894;42.768;23.404;2022-07-06T02:03:35;8.88;;;7.93;;
11675;SDS011;5894;42.768;23.404;2022-07-06T02:06:03;9.75;;;8.40;;
11675;SDS011;5894;42.768;23.404;2022-07-06T02:08:31;9.98;;;8.43;;
11675;SDS011;5894;42.768;23.404;2022-07-06T02:10:58;13.68;;;9.00;;
11675;SDS011;5894;42.768;23.404;2022-07-06T02:13:26;9.35;;;8.40;;
11675;SDS011;5894;42.768;23.404;2022-07-06T02:15:53;8.88;;;7.97;;
11675;SDS011;5894;42.768;23.404;2022-07-06T02:18:20;10.07;;;8.05;;
11675;SDS011;5894;42.768;23.404;2022-07-06T02:20:47;9.00;;;8.10;;
11675;SDS011;5894;42.768;23.404;2022-07-06T02:23:13;8.88;;;7.97;;
11675;SDS011;5894;42.768;23.404;2022-07-06T02:25:41;9.40;;;8.05;;
11675;SDS011;5894;42.768;23.404;2022-07-06T02:28:08;11.77;;;8.20;;
11675;SDS011;5894;42.768;23.404;2022-07-06T02:30:36;8.60;;;7.78;;
11675;SDS011;5894;42.768;23.404;2022-07-06T02:33:03;8.85;;;7.95;;
11675;SDS011;5894;42.768;23.404;2022-07-06T02:35:31;11.40;;;8.43;;
11675;SDS011;5894;42.768;23.404;2022-07-06T02:37:59;10.00;;;8.25;;
11675;SDS011;5894;42.768;23.404;2022-07-06T02:40:26;9.02;;;8.10;;
11675;SDS011;5894;42.768;23.404;2022-07-06T02:42:53;10.73;;;8.90;;
11675;SDS011;5894;42.768;23.404;2022-07-06T02:45:20;9.25;;;8.30;;
11675;SDS011;5894;42.768;23.404;2022-07-06T02:47:48;9.60;;;8.20;;
11675;SDS011;5894;42.768;23.404;2022-07-06T02:50:16;9.10;;;8.20;;
11675;SDS011;5894;42.768;23.404;2022-07-06T02:52:43;9.20;;;8.40;;
11675;SDS011;5894;42.768;23.404;2022-07-06T02:55:10;10.18;;;9.02;;
11675;SDS011;5894;42.768;23.404;2022-07-06T02:57:38;9.60;;;8.60;;
11675;SDS011;5894;42.768;23.404;2022-07-06T03:00:06;9.68;;;8.00;;
11675;SDS011;5894;42.768;23.404;2022-07-06T03:02:34;9.07;;;8.05;;
11675;SDS011;5894;42.768;23.404;2022-07-06T03:05:03;9.50;;;8.60;;
11675;SDS011;5894;42.768;23.404;2022-07-06T03:07:31;9.00;;;7.82;;
11675;SDS011;5894;42.768;23.404;2022-07-06T03:09:58;9.80;;;8.30;;
11675;SDS011;5894;42.768;23.404;2022-07-06T03:12:26;11.23;;;8.52;;
11675;SDS011;5894;42.768;23.404;2022-07-06T03:14:54;8.98;;;8.07;;
11675;SDS011;5894;42.768;23.404;2022-07-06T03:17:21;9.27;;;8.20;;
11675;SDS011;5894;42.768;23.404;2022-07-06T03:19:49;8.38;;;7.40;;
11675;SDS011;5894;42.768;23.404;2022-07-06T03:22:19;9.25;;;8.20;;
11675;SDS011;5894;42.768;23.404;2022-07-06T03:24:46;9.38;;;8.07;;
11675;SDS011;5894;42.768;23.404;2022-07-06T03:27:14;10.80;;;8.80;;
11675;SDS011;5894;42.768;23.404;2022-07-06T03:29:41;9.73;;;8.60;;
11675;SDS011;5894;42.768;23.404;2022-07-06T03:32:08;10.70;;;8.40;;
11675;SDS011;5894;42.768;23.404;2022-07-06T03:34:36;8.82;;;7.90;;
11675;SDS011;5894;42.768;23.404;2022-07-06T03:37:03;10.25;;;8.18;;
11675;SDS011;5894;42.768;23.404;2022-07-06T03:39:33;13.05;;;8.75;;
11675;SDS011;5894;42.768;23.404;2022-07-06T03:42:01;10.75;;;8.77;;
11675;SDS011;5894;42.768;23.404;2022-07-06T03:44:30;9.50;;;7.95;;
11675;SDS011;5894;42.768;23.404;2022-07-06T03:46:57;13.23;;;8.23;;
11675;SDS011;5894;42.768;23.404;2022-07-06T03:49:25;9.38;;;8.48;;
11675;SDS011;5894;42.768;23.404;2022-07-06T03:51:54;9.15;;;8.25;;
11675;SDS011;5894;42.768;23.404;2022-07-06T03:54:22;9.73;;;7.85;;
11675;SDS011;5894;42.768;23.404;2022-07-06T03:56:50;11.73;;;8.10;;
11675;SDS011;5894;42.768;23.404;2022-07-06T03:59:18;10.18;;;8.43;;
11675;SDS011;5894;42.768;23.404;2022-07-06T04:01:45;8.77;;;7.88;;
11675;SDS011;5894;42.768;23.404;2022-07-06T04:04:14;8.85;;;7.95;;
11675;SDS011;5894;42.768;23.404;2022-07-06T04:06:44;11.02;;;8.00;;
11675;SDS011;5894;42.768;23.404;2022-07-06T04:09:11;9.45;;;8.40;;
11675;SDS011;5894;42.768;23.404;2022-07-06T04:11:39;9.88;;;7.70;;
11675;SDS011;5894;42.768;23.404;2022-07-06T04:14:07;10.15;;;9.02;;
11675;SDS011;5894;42.768;23.404;2022-07-06T04:16:34;10.45;;;9.10;;
11675;SDS011;5894;42.768;23.404;2022-07-06T04:19:01;12.40;;;9.70;;
11675;SDS011;5894;42.768;23.404;2022-07-06T04:21:28;12.13;;;9.05;;
11675;SDS011;5894;42.768;23.404;2022-07-06T04:23:55;11.77;;;8.82;;
11675;SDS011;5894;42.768;23.404;2022-07-06T04:26:22;11.80;;;8.82;;
11675;SDS011;5894;42.768;23.404;2022-07-06T04:28:49;11.55;;;8.52;;
11675;SDS011;5894;42.768;23.404;2022-07-06T04:31:18;10.07;;;8.57;;
11675;SDS011;5894;42.768;23.404;2022-07-06T04:33:48;11.93;;;8.85;;
11675;SDS011;5894;42.768;23.404;2022-07-06T04:36:14;12.00;;;8.52;;
11675;SDS011;5894;42.768;23.404;2022-07-06T04:38:43;12.73;;;9.05;;
11675;SDS011;5894;42.768;23.404;2022-07-06T04:41:14;10.65;;;9.48;;
11675;SDS011;5894;42.768;23.404;2022-07-06T04:43:40;11.15;;;9.45;;
11675;SDS011;5894;42.768;23.404;2022-07-06T04:46:11;11.60;;;9.27;;
11675;SDS011;5894;42.768;23.404;2022-07-06T04:48:42;11.10;;;9.25;;
11675;SDS011;5894;42.768;23.404;2022-07-06T04:51:13;13.02;;;9.13;;
11675;SDS011;5894;42.768;23.404;2022-07-06T05:01:04;11.35;;;9.50;;
11675;SDS011;5894;42.768;23.404;2022-07-06T05:03:32;12.88;;;9.73;;
11675;SDS011;5894;42.768;23.404;2022-07-06T05:06:02;11.23;;;9.68;;
11675;SDS011;5894;42.768;23.404;2022-07-06T05:08:31;12.88;;;9.35;;
11675;SDS011;5894;42.768;23.404;2022-07-06T05:10:58;11.13;;;9.35;;
11675;SDS011;5894;42.768;23.404;2022-07-06T05:13:25;13.07;;;9.55;;
11675;SDS011;5894;42.768;23.404;2022-07-06T05:15:53;10.48;;;9.27;;
11675;SDS011;5894;42.768;23.404;2022-07-06T05:18:20;13.15;;;10.10;;
11675;SDS011;5894;42.768;23.404;2022-07-06T05:20:47;11.10;;;9.48;;
11675;SDS011;5894;42.768;23.404;2022-07-06T05:23:16;13.10;;;9.60;;
11675;SDS011;5894;42.768;23.404;2022-07-06T05:25:43;13.88;;;10.18;;
11675;SDS011;5894;42.768;23.404;2022-07-06T05:28:10;14.30;;;9.80;;
11675;SDS011;5894;42.768;23.404;2022-07-06T05:30:37;12.02;;;9.82;;
11675;SDS011;5894;42.768;23.404;2022-07-06T05:33:04;10.65;;;9.10;;
11675;SDS011;5894;42.768;23.404;2022-07-06T05:35:32;9.23;;;8.10;;
11675;SDS011;5894;42.768;23.404;2022-07-06T05:38:01;14.77;;;8.65;;
11675;SDS011;5894;42.768;23.404;2022-07-06T05:40:29;11.70;;;7.90;;
11675;SDS011;5894;42.768;23.404;2022-07-06T05:42:57;10.10;;;8.63;;
11675;SDS011;5894;42.768;23.404;2022-07-06T05:45:23;9.57;;;7.63;;
11675;SDS011;5894;42.768;23.404;2022-07-06T05:47:52;9.40;;;7.53;;
11675;SDS011;5894;42.768;23.404;2022-07-06T05:50:37;8.68;;;7.88;;
11675;SDS011;5894;42.768;23.404;2022-07-06T05:53:04;9.30;;;8.20;;
11675;SDS011;5894;42.768;23.404;2022-07-06T05:55:34;9.73;;;8.07;;
11675;SDS011;5894;42.768;23.404;2022-07-06T05:58:02;9.75;;;8.13;;
11675;SDS011;5894;42.768;23.404;2022-07-06T06:00:31;8.98;;;8.00;;
11675;SDS011;5894;42.768;23.404;2022-07-06T06:03:03;11.63;;;7.80;;
11675;SDS011;5894;42.768;23.404;2022-07-06T06:05:30;10.60;;;7.95;;
11675;SDS011;5894;42.768;23.404;2022-07-06T06:08:03;9.38;;;8.00;;
11675;SDS011;5894;42.768;23.404;2022-07-06T06:10:30;8.50;;;7.43;;
11675;SDS011;5894;42.768;23.404;2022-07-06T06:13:02;9.30;;;8.30;;
11675;SDS011;5894;42.768;23.404;2022-07-06T06:15:30;9.98;;;8.55;;
11675;SDS011;5894;42.768;23.404;2022-07-06T06:17:57;10.75;;;8.80;;
11675;SDS011;5894;42.768;23.404;2022-07-06T06:20:24;12.18;;;8.82;;
11675;SDS011;5894;42.768;23.404;2022-07-06T06:22:51;10.45;;;9.07;;
11675;SDS011;5894;42.768;23.404;2022-07-06T06:25:20;9.95;;;8.93;;
11675;SDS011;5894;42.768;23.404;2022-07-06T06:27:53;10.05;;;9.00;;
11675;SDS011;5894;42.768;23.404;2022-07-06T06:30:21;10.88;;;9.40;;
11675;SDS011;5894;42.768;23.404;2022-07-06T06:32:48;10.60;;;9.02;;
11675;SDS011;5894;42.768;23.404;2022-07-06T06:35:15;11.45;;;8.68;;
11675;SDS011;5894;42.768;23.404;2022-07-06T06:37:42;9.20;;;8.10;;
11675;SDS011;5894;42.768;23.404;2022-07-06T06:40:09;13.25;;;8.70;;
11675;SDS011;5894;42.768;23.404;2022-07-06T06:42:36;9.02;;;8.23;;
11675;SDS011;5894;42.768;23.404;2022-07-06T06:45:07;10.88;;;8.60;;
11675;SDS011;5894;42.768;23.404;2022-07-06T06:47:36;8.77;;;7.97;;
11675;SDS011;5894;42.768;23.404;2022-07-06T06:50:03;9.23;;;8.20;;
11675;SDS011;5894;42.768;23.404;2022-07-06T06:52:31;9.40;;;7.63;;
11675;SDS011;5894;42.768;23.404;2022-07-06T06:54:58;8.77;;;7.88;;
11675;SDS011;5894;42.768;23.404;2022-07-06T06:57:25;8.43;;;7.60;;
11675;SDS011;5894;42.768;23.404;2022-07-06T06:59:51;7.97;;;7.18;;
11675;SDS011;5894;42.768;23.404;2022-07-06T07:02:18;7.53;;;6.82;;
11675;SDS011;5894;42.768;23.404;2022-07-06T07:04:46;7.25;;;6.38;;
11675;SDS011;5894;42.768;23.404;2022-07-06T07:07:13;6.80;;;6.10;;
11675;SDS011;5894;42.768;23.404;2022-07-06T07:09:40;9.07;;;6.40;;
11675;SDS011;5894;42.768;23.404;2022-07-06T07:12:08;8.20;;;7.20;;
11675;SDS011;5894;42.768;23.404;2022-07-06T07:14:35;8.07;;;7.25;;
11675;SDS011;5894;42.768;23.404;2022-07-06T07:17:02;8.32;;;7.53;;
11675;SDS011;5894;42.768;23.404;2022-07-06T07:19:29;8.82;;;7.50;;
11675;SDS011;5894;42.768;23.404;2022-07-06T07:21:57;8.40;;;7.57;;
11675;SDS011;5894;42.768;23.404;2022-07-06T07:24:24;9.93;;;8.05;;
11675;SDS011;5894;42.768;23.404;2022-07-06T07:26:51;8.85;;;7.95;;
11675;SDS011;5894;42.768;23.404;2022-07-06T07:29:18;8.82;;;7.97;;
11675;SDS011;5894;42.768;23.404;2022-07-06T07:31:45;10.15;;;8.88;;
11675;SDS011;5894;42.768;23.404;2022-07-06T07:34:12;10.63;;;8.65;;
11675;SDS011;5894;42.768;23.404;2022-07-06T07:36:38;9.48;;;8.57;;
11675;SDS011;5894;42.768;23.404;2022-07-06T07:39:07;9.35;;;8.43;;
11675;SDS011;5894;42.768;23.404;2022-07-06T07:41:34;10.20;;;8.48;;
11675;SDS011;5894;42.768;23.404;2022-07-06T07:44:01;9.60;;;8.60;;
11675;SDS011;5894;42.768;23.404;2022-07-06T07:46:27;10.35;;;9.30;;
11675;SDS011;5894;42.768;23.404;2022-07-06T07:48:54;10.52;;;8.75;;
11675;SDS011;5894;42.768;23.404;2022-07-06T07:51:22;9.05;;;8.13;;
11675;SDS011;5894;42.768;23.404;2022-07-06T07:53:49;9.25;;;8.18;;
11675;SDS011;5894;42.768;23.404;2022-07-06T07:56:17;8.70;;;7.80;;
11675;SDS011;5894;42.768;23.404;2022-07-06T07:58:44;9.40;;;8.18;;
11675;SDS011;5894;42.768;23.404;2022-07-06T08:01:13;10.73;;;8.02;;
11675;SDS011;5894;42.768;23.404;2022-07-06T08:03:40;9.18;;;8.20;;
11675;SDS011;5894;42.768;23.404;2022-07-06T08:06:07;9.55;;;8.63;;
11675;SDS011;5894;42.768;23.404;2022-07-06T08:08:34;9.45;;;8.55;;
11675;SDS011;5894;42.768;23.404;2022-07-06T08:11:01;11.43;;;8.23;;
11675;SDS011;5894;42.768;23.404;2022-07-06T08:13:29;9.55;;;8.60;;
11675;SDS011;5894;42.768;23.404;2022-07-06T08:15:56;8.73;;;7.90;;
11675;SDS011;5894;42.768;23.404;2022-07-06T08:18:22;9.95;;;8.95;;
11675;SDS011;5894;42.768;23.404;2022-07-06T08:20:49;9.52;;;8.52;;
11675;SDS011;5894;42.768;23.404;2022-07-06T08:23:16;9.15;;;8.35;;
11675;SDS011;5894;42.768;23.404;2022-07-06T08:25:43;8.02;;;7.22;;
11675;SDS011;5894;42.768;23.404;2022-07-06T08:28:10;9.95;;;7.40;;
11675;SDS011;5894;42.768;23.404;2022-07-06T08:30:38;8.15;;;7.38;;
11675;SDS011;5894;42.768;23.404;2022-07-06T08:33:05;8.40;;;7.63;;
11675;SDS011;5894;42.768;23.404;2022-07-06T08:35:32;9.25;;;8.20;;
11675;SDS011;5894;42.768;23.404;2022-07-06T08:37:59;8.48;;;7.50;;
11675;SDS011;5894;42.768;23.404;2022-07-06T08:40:25;8.82;;;7.95;;
11675;SDS011;5894;42.768;23.404;2022-07-06T08:42:57;8.45;;;7.57;;
11675;SDS011;5894;42.768;23.404;2022-07-06T08:45:26;8.25;;;7.50;;
11675;SDS011;5894;42.768;23.404;2022-07-06T08:47:55;8.60;;;7.65;;
11675;SDS011;5894;42.768;23.404;2022-07-06T08:50:24;9.02;;;8.15;;
11675;SDS011;5894;42.768;23.404;2022-07-06T08:52:52;8.23;;;7.20;;
11675;SDS011;5894;42.768;23.404;2022-07-06T08:55:19;7.32;;;6.72;;
11675;SDS011;5894;42.768;23.404;2022-07-06T08:57:46;7.95;;;6.55;;
11675;SDS011;5894;42.768;23.404;2022-07-06T09:00:13;8.52;;;7.05;;
11675;SDS011;5894;42.768;23.404;2022-07-06T09:02:41;8.05;;;7.25;;
11675;SDS011;5894;42.768;23.404;2022-07-06T09:05:10;8.45;;;7.47;;
11675;SDS011;5894;42.768;23.404;2022-07-06T09:07:41;9.23;;;7.88;;
11675;SDS011;5894;42.768;23.404;2022-07-06T09:10:08;10.52;;;7.68;;
11675;SDS011;5894;42.768;23.404;2022-07-06T09:12:35;8.50;;;7.63;;
11675;SDS011;5894;42.768;23.404;2022-07-06T09:15:03;9.90;;;8.20;;
11675;SDS011;5894;42.768;23.404;2022-07-06T09:17:30;9.10;;;8.20;;
11675;SDS011;5894;42.768;23.404;2022-07-06T09:19:57;9.65;;;8.73;;
11675;SDS011;5894;42.768;23.404;2022-07-06T09:22:26;9.82;;;8.85;;
11675;SDS011;5894;42.768;23.404;2022-07-06T09:25:00;10.65;;;9.65;;
11675;SDS011;5894;42.768;23.404;2022-07-06T09:27:29;13.88;;;11.43;;
11675;SDS011;5894;42.768;23.404;2022-07-06T09:29:58;11.18;;;9.60;;
11675;SDS011;5894;42.768;23.404;2022-07-06T09:32:26;10.23;;;9.32;;
11675;SDS011;5894;42.768;23.404;2022-07-06T09:34:53;14.15;;;10.57;;
11675;SDS011;5894;42.768;23.404;2022-07-06T09:37:21;11.13;;;10.02;;
11675;SDS011;5894;42.768;23.404;2022-07-06T09:39:50;12.95;;;10.43;;
11675;SDS011;5894;42.768;23.404;2022-07-06T09:42:17;11.65;;;10.50;;
11675;SDS011;5894;42.768;23.404;2022-07-06T09:44:50;11.15;;;9.82;;
11675;SDS011;5894;42.768;23.404;2022-07-06T09:47:17;13.68;;;10.75;;
11675;SDS011;5894;42.768;23.404;2022-07-06T09:49:45;11.90;;;10.70;;
11675;SDS011;5894;42.768;23.404;2022-07-06T09:52:13;12.60;;;11.30;;
11675;SDS011;5894;42.768;23.404;2022-07-06T09:54:40;12.30;;;11.13;;
11675;SDS011;5894;42.768;23.404;2022-07-06T09:57:09;12.15;;;10.95;;
11675;SDS011;5894;42.768;23.404;2022-07-06T09:59:36;12.55;;;11.45;;
11675;SDS011;5894;42.768;23.404;2022-07-06T10:02:04;12.10;;;10.90;;
11675;SDS011;5894;42.768;23.404;2022-07-06T10:04:32;12.68;;;11.45;;
11675;SDS011;5894;42.768;23.404;2022-07-06T10:07:00;13.80;;;10.98;;
11675;SDS011;5894;42.768;23.404;2022-07-06T10:09:27;11.93;;;10.82;;
11675;SDS011;5894;42.768;23.404;2022-07-06T10:11:59;13.00;;;11.70;;
11675;SDS011;5894;42.768;23.404;2022-07-06T10:14:29;12.77;;;11.57;;
11675;SDS011;5894;42.768;23.404;2022-07-06T10:16:58;13.55;;;12.25;;
11675;SDS011;5894;42.768;23.404;2022-07-06T10:19:27;13.55;;;12.15;;
11675;SDS011;5894;42.768;23.404;2022-07-06T10:21:56;12.38;;;11.27;;
11675;SDS011;5894;42.768;23.404;2022-07-06T10:24:26;11.80;;;10.77;;
11675;SDS011;5894;42.768;23.404;2022-07-06T10:26:54;12.85;;;11.57;;
11675;SDS011;5894;42.768;23.404;2022-07-06T10:29:21;12.70;;;11.50;;
11675;SDS011;5894;42.768;23.404;2022-07-06T10:31:52;12.38;;;11.10;;
11675;SDS011;5894;42.768;23.404;2022-07-06T10:34:20;13.27;;;11.98;;
11675;SDS011;5894;42.768;23.404;2022-07-06T10:36:48;12.23;;;11.00;;
11675;SDS011;5894;42.768;23.404;2022-07-06T10:39:16;12.35;;;11.25;;
11675;SDS011;5894;42.768;23.404;2022-07-06T10:45:08;12.20;;;11.00;;
11675;SDS011;5894;42.768;23.404;2022-07-06T10:47:39;11.18;;;10.15;;
11675;SDS011;5894;42.768;23.404;2022-07-06T10:50:07;11.23;;;10.13;;
11675;SDS011;5894;42.768;23.404;2022-07-06T10:52:52;12.38;;;11.27;;
11675;SDS011;5894;42.768;23.404;2022-07-06T10:55:31;12.20;;;11.00;;
11675;SDS011;5894;42.768;23.404;2022-07-06T10:57:59;12.95;;;11.70;;
11675;SDS011;5894;42.768;23.404;2022-07-06T11:00:41;12.90;;;11.60;;
11675;SDS011;5894;42.768;23.404;2022-07-06T11:06:14;13.63;;;12.23;;
11675;SDS011;5894;42.768;23.404;2022-07-06T11:08:42;13.23;;;12.02;;
11675;SDS011;5894;42.768;23.404;2022-07-06T11:11:11;13.55;;;12.15;;
11675;SDS011;5894;42.768;23.404;2022-07-06T11:13:49;13.82;;;12.40;;
11675;SDS011;5894;42.768;23.404;2022-07-06T11:16:18;12.30;;;11.20;;
11675;SDS011;5894;42.768;23.404;2022-07-06T11:18:48;12.60;;;11.50;;
11675;SDS011;5894;42.768;23.404;2022-07-06T11:21:17;12.63;;;11.50;;
11675;SDS011;5894;42.768;23.404;2022-07-06T11:23:45;13.63;;;12.23;;
11675;SDS011;5894;42.768;23.404;2022-07-06T11:26:14;13.57;;;12.25;;
11675;SDS011;5894;42.768;23.404;2022-07-06T11:28:41;12.25;;;11.13;;
11675;SDS011;5894;42.768;23.404;2022-07-06T11:31:12;13.55;;;12.20;;
11675;SDS011;5894;42.768;23.404;2022-07-06T11:33:41;13.57;;;12.40;;
11675;SDS011;5894;42.768;23.404;2022-07-06T11:36:13;14.68;;;13.30;;
11675;SDS011;5894;42.768;23.404;2022-07-06T11:38:41;14.52;;;13.18;;
11675;SDS011;5894;42.768;23.404;2022-07-06T11:41:07;15.40;;;14.05;;
11675;SDS011;5894;42.768;23.404;2022-07-06T11:43:34;14.38;;;13.07;;
11675;SDS011;5894;42.768;23.404;2022-07-06T11:46:02;12.95;;;11.77;;
11675;SDS011;5894;42.768;23.404;2022-07-06T11:48:29;13.82;;;12.63;;
11675;SDS011;5894;42.768;23.404;2022-07-06T11:50:57;13.63;;;12.27;;
11675;SDS011;5894;42.768;23.404;2022-07-06T11:53:26;12.90;;;11.80;;
11675;SDS011;5894;42.768;23.404;2022-07-06T11:55:53;12.98;;;11.68;;
11675;SDS011;5894;42.768;23.404;2022-07-06T11:58:21;12.27;;;11.07;;
11675;SDS011;5894;42.768;23.404;2022-07-06T12:01:05;11.75;;;10.73;;
11675;SDS011;5894;42.768;23.404;2022-07-06T12:03:32;12.52;;;11.32;;
11675;SDS011;5894;42.768;23.404;2022-07-06T12:06:00;11.73;;;10.65;;
11675;SDS011;5894;42.768;23.404;2022-07-06T12:08:28;10.85;;;9.95;;
11675;SDS011;5894;42.768;23.404;2022-07-06T12:10:55;10.57;;;9.68;;
11675;SDS011;5894;42.768;23.404;2022-07-06T12:13:22;10.77;;;9.77;;
11675;SDS011;5894;42.768;23.404;2022-07-06T12:15:50;10.43;;;9.50;;
11675;SDS011;5894;42.768;23.404;2022-07-06T12:18:16;10.35;;;9.45;;
11675;SDS011;5894;42.768;23.404;2022-07-06T12:20:43;10.18;;;9.38;;
11675;SDS011;5894;42.768;23.404;2022-07-06T12:23:10;9.82;;;8.95;;
11675;SDS011;5894;42.768;23.404;2022-07-06T12:25:39;11.38;;;9.02;;
11675;SDS011;5894;42.768;23.404;2022-07-06T12:28:06;9.63;;;8.82;;
11675;SDS011;5894;42.768;23.404;2022-07-06T12:30:48;10.07;;;9.10;;
11675;SDS011;5894;42.768;23.404;2022-07-06T12:33:15;9.98;;;9.10;;
11675;SDS011;5894;42.768;23.404;2022-07-06T12:35:43;10.35;;;9.45;;
11675;SDS011;5894;42.768;23.404;2022-07-06T12:38:11;10.65;;;9.75;;
11675;SDS011;5894;42.768;23.404;2022-07-06T12:40:39;9.70;;;8.90;;
11675;SDS011;5894;42.768;23.404;2022-07-06T12:43:06;9.65;;;8.77;;
11675;SDS011;5894;42.768;23.404;2022-07-06T12:45:33;9.82;;;8.93;;
11675;SDS011;5894;42.768;23.404;2022-07-06T12:48:00;9.65;;;8.75;;
11675;SDS011;5894;42.768;23.404;2022-07-06T12:50:30;9.60;;;8.43;;
11675;SDS011;5894;42.768;23.404;2022-07-06T12:52:59;8.73;;;8.02;;
11675;SDS011;5894;42.768;23.404;2022-07-06T12:55:27;9.10;;;8.20;;
11675;SDS011;5894;42.768;23.404;2022-07-06T12:57:57;8.80;;;7.90;;
11675;SDS011;5894;42.768;23.404;2022-07-06T13:00:25;8.98;;;8.27;;
11675;SDS011;5894;42.768;23.404;2022-07-06T13:02:52;8.30;;;7.47;;
11675;SDS011;5894;42.768;23.404;2022-07-06T13:05:24;8.63;;;7.93;;
11675;SDS011;5894;42.768;23.404;2022-07-06T13:07:54;8.30;;;7.60;;
11675;SDS011;5894;42.768;23.404;2022-07-06T13:10:22;7.85;;;7.15;;
11675;SDS011;5894;42.768;23.404;2022-07-06T13:12:49;7.65;;;6.95;;
11675;SDS011;5894;42.768;23.404;2022-07-06T13:15:18;7.85;;;7.07;;
11675;SDS011;5894;42.768;23.404;2022-07-06T13:17:45;7.78;;;6.90;;
11675;SDS011;5894;42.768;23.404;2022-07-06T13:20:12;6.80;;;6.20;;
11675;SDS011;5894;42.768;23.404;2022-07-06T13:22:42;5.65;;;5.10;;
11675;SDS011;5894;42.768;23.404;2022-07-06T13:25:09;5.50;;;5.10;;
11675;SDS011;5894;42.768;23.404;2022-07-06T13:27:36;5.30;;;4.80;;
11675;SDS011;5894;42.768;23.404;2022-07-06T13:30:03;5.38;;;4.88;;
11675;SDS011;5894;42.768;23.404;2022-07-06T13:32:32;4.95;;;4.53;;
11675;SDS011;5894;42.768;23.404;2022-07-06T13:34:59;4.10;;;3.80;;
11675;SDS011;5894;42.768;23.404;2022-07-06T13:37:26;4.57;;;4.18;;
11675;SDS011;5894;42.768;23.404;2022-07-06T13:39:53;3.85;;;3.55;;
11675;SDS011;5894;42.768;23.404;2022-07-06T13:42:19;4.78;;;3.88;;
11675;SDS011;5894;42.768;23.404;2022-07-06T13:44:46;4.05;;;3.70;;
11675;SDS011;5894;42.768;23.404;2022-07-06T13:47:13;3.47;;;3.17;;
11675;SDS011;5894;42.768;23.404;2022-07-06T13:49:41;4.68;;;3.35;;
11675;SDS011;5894;42.768;23.404;2022-07-06T13:52:12;3.92;;;3.53;;
11675;SDS011;5894;42.768;23.404;2022-07-06T13:54:39;3.75;;;3.45;;
11675;SDS011;5894;42.768;23.404;2022-07-06T13:57:06;3.92;;;3.60;;
11675;SDS011;5894;42.768;23.404;2022-07-06T13:59:33;3.80;;;3.50;;
11675;SDS011;5894;42.768;23.404;2022-07-06T14:02:00;3.88;;;3.20;;
11675;SDS011;5894;42.768;23.404;2022-07-06T14:04:26;3.90;;;3.47;;
11675;SDS011;5894;42.768;23.404;2022-07-06T14:06:55;3.72;;;3.42;;
11675;SDS011;5894;42.768;23.404;2022-07-06T14:09:21;3.97;;;3.58;;
11675;SDS011;5894;42.768;23.404;2022-07-06T14:11:48;4.10;;;3.78;;
11675;SDS011;5894;42.768;23.404;2022-07-06T14:14:15;3.50;;;3.30;;
11675;SDS011;5894;42.768;23.404;2022-07-06T14:16:42;5.13;;;3.58;;
11675;SDS011;5894;42.768;23.404;2022-07-06T14:19:09;4.38;;;3.10;;
11675;SDS011;5894;42.768;23.404;2022-07-06T14:21:36;3.50;;;3.00;;
11675;SDS011;5894;42.768;23.404;2022-07-06T14:24:04;3.40;;;3.10;;
11675;SDS011;5894;42.768;23.404;2022-07-06T14:26:31;3.08;;;2.88;;
11675;SDS011;5894;42.768;23.404;2022-07-06T14:28:58;3.72;;;2.85;;
11675;SDS011;5894;42.768;23.404;2022-07-06T14:31:25;4.85;;;2.63;;
11675;SDS011;5894;42.768;23.404;2022-07-06T14:33:52;5.63;;;3.05;;
11675;SDS011;5894;42.768;23.404;2022-07-06T14:36:19;3.28;;;2.97;;
11675;SDS011;5894;42.768;23.404;2022-07-06T14:38:46;2.53;;;2.33;;
11675;SDS011;5894;42.768;23.404;2022-07-06T14:41:14;2.90;;;2.60;;
11675;SDS011;5894;42.768;23.404;2022-07-06T14:43:41;2.92;;;2.30;;
11675;SDS011;5894;42.768;23.404;2022-07-06T14:46:08;2.75;;;2.42;;
11675;SDS011;5894;42.768;23.404;2022-07-06T14:48:35;3.13;;;2.70;;
11675;SDS011;5894;42.768;23.404;2022-07-06T14:51:01;3.30;;;2.75;;
11675;SDS011;5894;42.768;23.404;2022-07-06T14:53:28;4.53;;;2.80;;
11675;SDS011;5894;42.768;23.404;2022-07-06T14:55:55;2.70;;;2.50;;
11675;SDS011;5894;42.768;23.404;2022-07-06T14:58:24;2.95;;;2.40;;